TimeEST,TemperatureF,Dew PointF,Humidity,Sea Level PressureIn,VisibilityMPH,Wind Direction,Wind SpeedMPH,Gust SpeedMPH,PrecipitationIn,Events,Conditions,WindDirDegrees,DateUTC
12:53 AM,27.0,19.0,72,30.25,10.0,NNW,16.1,24.2,N/A,,Clear,330,2013-03-09 05:53:00
1:53 AM,26.1,18.0,71,30.25,10.0,NNW,11.5,20.7,N/A,,Clear,330,2013-03-09 06:53:00
2:53 AM,26.1,18.0,71,30.24,10.0,NW,12.7,-,N/A,,Clear,320,2013-03-09 07:53:00
3:53 AM,25.0,18.0,75,30.25,10.0,NW,10.4,-,N/A,,Clear,320,2013-03-09 08:53:00
4:53 AM,25.0,18.0,75,30.26,10.0,NNW,15.0,21.9,N/A,,Clear,340,2013-03-09 09:53:00
5:53 AM,25.0,18.0,75,30.28,10.0,NNW,13.8,20.7,N/A,,Clear,340,2013-03-09 10:53:00
6:53 AM,26.1,18.0,71,30.28,10.0,North,16.1,20.7,N/A,,Clear,350,2013-03-09 11:53:00
7:53 AM,30.0,18.0,61,30.29,10.0,North,13.8,20.7,N/A,,Clear,350,2013-03-09 12:53:00
8:53 AM,34.0,19.0,54,30.31,10.0,North,15.0,21.9,N/A,,Clear,350,2013-03-09 13:53:00
9:53 AM,37.0,19.9,50,30.32,10.0,NNW,10.4,19.6,N/A,,Clear,340,2013-03-09 14:53:00
10:53 AM,39.0,19.9,46,30.31,10.0,NW,10.4,-,N/A,,Clear,310,2013-03-09 15:53:00
11:53 AM,43.0,19.9,40,30.31,10.0,NW,8.1,-,N/A,,Clear,310,2013-03-09 16:53:00
12:53 PM,45.0,21.0,39,30.29,10.0,NW,5.8,-,N/A,,Clear,310,2013-03-09 17:53:00
1:53 PM,48.0,19.9,33,30.27,10.0,NW,6.9,-,N/A,,Clear,310,2013-03-09 18:53:00
2:53 PM,48.9,19.0,31,30.27,10.0,NW,9.2,-,N/A,,Clear,310,2013-03-09 19:53:00
3:53 PM,50.0,19.9,31,30.27,10.0,NW,10.4,-,N/A,,Clear,320,2013-03-09 20:53:00
4:53 PM,48.9,19.0,31,30.28,10.0,Variable,3.5,-,N/A,,Clear,0,2013-03-09 21:53:00
5:53 PM,46.0,19.0,34,30.30,10.0,NW,4.6,-,N/A,,Clear,320,2013-03-09 22:53:00
6:53 PM,35.1,21.0,57,30.32,10.0,Calm,Calm,-,N/A,,Clear,0,2013-03-09 23:53:00
7:53 PM,32.0,21.9,66,30.32,10.0,Calm,Calm,-,N/A,,Clear,0,2013-03-10 00:53:00
8:53 PM,30.0,23.0,75,30.32,10.0,North,3.5,-,N/A,,Clear,360,2013-03-10 01:53:00
9:53 PM,30.9,21.9,69,30.32,-9999.0,Calm,Calm,-,N/A,,Clear,0,2013-03-10 02:53:00
10:53 PM,28.9,21.9,75,30.33,10.0,Calm,Calm,-,N/A,,Clear,0,2013-03-10 03:53:00
11:53 PM,27.0,19.9,75,30.32,10.0,NE,4.6,-,N/A,,Clear,50,2013-03-10 04:53:00